sensor_id;sensor_type;location;lat;lon;timestamp;temperature;humidity
75210;DHT22;63796;53.136;14.882;2023-10-13T00:01:35;8.40;99.90
75210;DHT22;63796;53.136;14.882;2023-10-13T00:04:03;8.40;99.90
75210;DHT22;63796;53.136;14.882;2023-10-13T00:06:32;8.50;99.90
75210;DHT22;63796;53.136;14.882;2023-10-13T00:09:00;8.60;99.90
75210;DHT22;63796;53.136;14.882;2023-10-13T00:11:27;8.60;99.90
75210;DHT22;63796;53.136;14.882;2023-10-13T00:13:54;8.50;99.90
75210;DHT22;63796;53.136;14.882;2023-10-13T00:16:22;8.50;99.90
75210;DHT22;63796;53.136;14.882;2023-10-13T00:18:50;8.50;99.90
75210;DHT22;63796;53.136;14.882;2023-10-13T00:21:21;8.60;99.90
75210;DHT22;63796;53.136;14.882;2023-10-13T00:23:58;8.70;99.90
75210;DHT22;63796;53.136;14.882;2023-10-13T00:26:33;8.70;99.90
75210;DHT22;63796;53.136;14.882;2023-10-13T00:29:03;8.60;99.90
75210;DHT22;63796;53.136;14.882;2023-10-13T00:31:38;8.60;99.90
75210;DHT22;63796;53.136;14.882;2023-10-13T00:34:10;8.50;99.90
75210;DHT22;63796;53.136;14.882;2023-10-13T00:36:40;8.50;99.90
75210;DHT22;63796;53.136;14.882;2023-10-13T00:39:15;8.40;99.90
75210;DHT22;63796;53.136;14.882;2023-10-13T00:41:43;8.30;99.90
75210;DHT22;63796;53.136;14.882;2023-10-13T00:44:24;8.20;99.90
75210;DHT22;63796;53.136;14.882;2023-10-13T00:47:20;8.20;99.90
75210;DHT22;63796;53.136;14.882;2023-10-13T00:50:04;8.40;99.90
75210;DHT22;63796;53.136;14.882;2023-10-13T00:52:32;8.70;99.90
75210;DHT22;63796;53.136;14.882;2023-10-13T00:55:03;9.00;99.90
75210;DHT22;63796;53.136;14.882;2023-10-13T00:57:31;9.10;99.90
75210;DHT22;63796;53.136;14.882;2023-10-13T01:00:00;9.10;99.90
75210;DHT22;63796;53.136;14.882;2023-10-13T01:02:39;9.20;99.90
75210;DHT22;63796;53.136;14.882;2023-10-13T01:05:07;9.30;99.90
75210;DHT22;63796;53.136;14.882;2023-10-13T01:07:41;9.40;99.90
75210;DHT22;63796;53.136;14.882;2023-10-13T01:10:09;9.50;99.90
75210;DHT22;63796;53.136;14.882;2023-10-13T01:12:42;9.70;99.90
75210;DHT22;63796;53.136;14.882;2023-10-13T01:15:10;9.70;99.90
75210;DHT22;63796;53.136;14.882;2023-10-13T01:17:38;9.80;99.90
75210;DHT22;63796;53.136;14.882;2023-10-13T01:20:06;9.90;99.90
75210;DHT22;63796;53.136;14.882;2023-10-13T01:22:34;10.00;99.90
75210;DHT22;63796;53.136;14.882;2023-10-13T01:25:03;10.00;99.90
75210;DHT22;63796;53.136;14.882;2023-10-13T01:27:40;10.10;99.90
75210;DHT22;63796;53.136;14.882;2023-10-13T01:30:08;9.90;99.90
75210;DHT22;63796;53.136;14.882;2023-10-13T01:32:52;10.00;99.90
75210;DHT22;63796;53.136;14.882;2023-10-13T01:35:21;10.10;99.90
75210;DHT22;63796;53.136;14.882;2023-10-13T01:37:54;10.20;99.90
75210;DHT22;63796;53.136;14.882;2023-10-13T01:40:21;10.30;99.90
75210;DHT22;63796;53.136;14.882;2023-10-13T01:42:56;10.30;99.90
75210;DHT22;63796;53.136;14.882;2023-10-13T01:45:23;10.30;99.90
75210;DHT22;63796;53.136;14.882;2023-10-13T01:47:56;10.30;99.90
75210;DHT22;63796;53.136;14.882;2023-10-13T01:50:23;10.30;99.90
75210;DHT22;63796;53.136;14.882;2023-10-13T01:52:57;10.40;99.90
75210;DHT22;63796;53.136;14.882;2023-10-13T01:55:41;10.40;99.90
75210;DHT22;63796;53.136;14.882;2023-10-13T01:58:12;10.30;99.90
75210;DHT22;63796;53.136;14.882;2023-10-13T02:00:46;10.20;99.90
75210;DHT22;63796;53.136;14.882;2023-10-13T02:03:15;10.20;99.90
75210;DHT22;63796;53.136;14.882;2023-10-13T02:05:44;10.20;99.90
75210;DHT22;63796;53.136;14.882;2023-10-13T02:08:16;10.30;99.90
75210;DHT22;63796;53.136;14.882;2023-10-13T02:13:50;10.30;99.90
75210;DHT22;63796;53.136;14.882;2023-10-13T02:16:18;10.40;99.90
75210;DHT22;63796;53.136;14.882;2023-10-13T02:18:49;10.50;99.90
75210;DHT22;63796;53.136;14.882;2023-10-13T02:21:19;10.50;99.90
75210;DHT22;63796;53.136;14.882;2023-10-13T02:23:47;10.60;99.90
75210;DHT22;63796;53.136;14.882;2023-10-13T02:26:29;10.70;99.90
75210;DHT22;63796;53.136;14.882;2023-10-13T02:28:58;10.70;99.90
75210;DHT22;63796;53.136;14.882;2023-10-13T02:31:28;10.70;99.90
75210;DHT22;63796;53.136;14.882;2023-10-13T02:33:56;10.70;99.90
75210;DHT22;63796;53.136;14.882;2023-10-13T02:36:23;10.70;99.90
75210;DHT22;63796;53.136;14.882;2023-10-13T02:39:03;10.70;99.90
75210;DHT22;63796;53.136;14.882;2023-10-13T02:41:35;10.60;99.90
75210;DHT22;63796;53.136;14.882;2023-10-13T02:44:06;10.60;99.90
75210;DHT22;63796;53.136;14.882;2023-10-13T02:46:34;10.70;99.90
75210;DHT22;63796;53.136;14.882;2023-10-13T02:49:07;10.80;99.90
75210;DHT22;63796;53.136;14.882;2023-10-13T02:51:44;10.80;99.90
75210;DHT22;63796;53.136;14.882;2023-10-13T02:54:11;10.80;99.90
75210;DHT22;63796;53.136;14.882;2023-10-13T02:56:39;10.80;99.90
75210;DHT22;63796;53.136;14.882;2023-10-13T02:59:25;10.80;99.90
75210;DHT22;63796;53.136;14.882;2023-10-13T03:02:06;10.90;99.90
75210;DHT22;63796;53.136;14.882;2023-10-13T03:04:55;10.80;99.90
75210;DHT22;63796;53.136;14.882;2023-10-13T03:07:36;10.70;99.90
75210;DHT22;63796;53.136;14.882;2023-10-13T03:10:03;10.80;99.90
75210;DHT22;63796;53.136;14.882;2023-10-13T03:12:38;10.80;99.90
75210;DHT22;63796;53.136;14.882;2023-10-13T03:15:06;10.90;99.90
75210;DHT22;63796;53.136;14.882;2023-10-13T03:17:37;10.80;99.90
75210;DHT22;63796;53.136;14.882;2023-10-13T03:20:11;10.80;99.90
75210;DHT22;63796;53.136;14.882;2023-10-13T03:22:43;10.70;99.90
75210;DHT22;63796;53.136;14.882;2023-10-13T03:25:14;10.80;99.90
75210;DHT22;63796;53.136;14.882;2023-10-13T03:27:51;10.90;99.90
75210;DHT22;63796;53.136;14.882;2023-10-13T03:30:19;11.00;99.90
75210;DHT22;63796;53.136;14.882;2023-10-13T03:32:48;11.00;99.90
75210;DHT22;63796;53.136;14.882;2023-10-13T03:35:20;11.10;99.90
75210;DHT22;63796;53.136;14.882;2023-10-13T03:37:52;11.20;99.90
75210;DHT22;63796;53.136;14.882;2023-10-13T03:40:19;11.20;99.90
75210;DHT22;63796;53.136;14.882;2023-10-13T03:42:49;11.20;99.90
75210;DHT22;63796;53.136;14.882;2023-10-13T03:45:37;11.20;99.90
75210;DHT22;63796;53.136;14.882;2023-10-13T03:48:15;11.20;99.90
75210;DHT22;63796;53.136;14.882;2023-10-13T03:50:53;11.10;99.90
75210;DHT22;63796;53.136;14.882;2023-10-13T03:53:31;11.10;99.90
75210;DHT22;63796;53.136;14.882;2023-10-13T03:56:05;11.20;99.90
75210;DHT22;63796;53.136;14.882;2023-10-13T03:58:41;11.20;99.90
75210;DHT22;63796;53.136;14.882;2023-10-13T04:01:15;11.20;99.90
75210;DHT22;63796;53.136;14.882;2023-10-13T04:03:44;11.40;99.90
75210;DHT22;63796;53.136;14.882;2023-10-13T04:06:31;11.40;99.90
75210;DHT22;63796;53.136;14.882;2023-10-13T04:09:20;11.40;99.90
75210;DHT22;63796;53.136;14.882;2023-10-13T04:12:02;11.40;99.90
75210;DHT22;63796;53.136;14.882;2023-10-13T04:14:42;11.40;99.90
75210;DHT22;63796;53.136;14.882;2023-10-13T04:17:19;11.40;99.90
75210;DHT22;63796;53.136;14.882;2023-10-13T04:19:51;11.50;99.90
75210;DHT22;63796;53.136;14.882;2023-10-13T04:25:17;11.40;99.90
75210;DHT22;63796;53.136;14.882;2023-10-13T04:28:14;11.40;99.90
75210;DHT22;63796;53.136;14.882;2023-10-13T04:33:24;11.40;99.90
75210;DHT22;63796;53.136;14.882;2023-10-13T04:38:52;11.30;99.90
75210;DHT22;63796;53.136;14.882;2023-10-13T04:41:27;11.30;99.90
75210;DHT22;63796;53.136;14.882;2023-10-13T04:44:03;11.20;99.90
75210;DHT22;63796;53.136;14.882;2023-10-13T04:46:32;11.30;99.90
75210;DHT22;63796;53.136;14.882;2023-10-13T04:49:07;11.30;99.90
75210;DHT22;63796;53.136;14.882;2023-10-13T04:51:37;11.30;99.90
75210;DHT22;63796;53.136;14.882;2023-10-13T04:54:20;11.40;99.90
75210;DHT22;63796;53.136;14.882;2023-10-13T04:57:00;11.40;99.90
75210;DHT22;63796;53.136;14.882;2023-10-13T04:59:46;11.40;99.90
75210;DHT22;63796;53.136;14.882;2023-10-13T05:02:33;11.40;99.90
75210;DHT22;63796;53.136;14.882;2023-10-13T05:05:10;11.40;99.90
75210;DHT22;63796;53.136;14.882;2023-10-13T05:07:45;11.50;99.90
75210;DHT22;63796;53.136;14.882;2023-10-13T05:10:32;11.50;99.90
75210;DHT22;63796;53.136;14.882;2023-10-13T05:13:19;11.60;99.90
75210;DHT22;63796;53.136;14.882;2023-10-13T05:16:05;11.60;99.90
75210;DHT22;63796;53.136;14.882;2023-10-13T05:18:51;11.60;99.90
75210;DHT22;63796;53.136;14.882;2023-10-13T05:21:37;11.60;99.90
75210;DHT22;63796;53.136;14.882;2023-10-13T05:24:23;11.70;99.90
75210;DHT22;63796;53.136;14.882;2023-10-13T05:27:09;11.60;99.90
75210;DHT22;63796;53.136;14.882;2023-10-13T05:29:55;11.70;99.90
75210;DHT22;63796;53.136;14.882;2023-10-13T05:32:41;11.70;99.90
75210;DHT22;63796;53.136;14.882;2023-10-13T05:35:27;11.70;99.90
75210;DHT22;63796;53.136;14.882;2023-10-13T05:38:13;11.70;99.90
75210;DHT22;63796;53.136;14.882;2023-10-13T05:41:00;11.70;99.90
75210;DHT22;63796;53.136;14.882;2023-10-13T05:43:51;11.70;99.90
75210;DHT22;63796;53.136;14.882;2023-10-13T05:46:37;11.80;99.90
75210;DHT22;63796;53.136;14.882;2023-10-13T05:49:06;11.80;99.90
75210;DHT22;63796;53.136;14.882;2023-10-13T05:51:38;11.80;99.90
75210;DHT22;63796;53.136;14.882;2023-10-13T05:54:09;11.80;99.90
75210;DHT22;63796;53.136;14.882;2023-10-13T05:56:44;11.80;99.90
75210;DHT22;63796;53.136;14.882;2023-10-13T05:59:35;11.80;99.90
75210;DHT22;63796;53.136;14.882;2023-10-13T06:02:22;11.90;99.90
75210;DHT22;63796;53.136;14.882;2023-10-13T06:05:10;11.90;99.90
75210;DHT22;63796;53.136;14.882;2023-10-13T06:07:57;11.80;99.90
75210;DHT22;63796;53.136;14.882;2023-10-13T06:10:43;11.80;99.90
75210;DHT22;63796;53.136;14.882;2023-10-13T06:13:30;11.90;99.90
75210;DHT22;63796;53.136;14.882;2023-10-13T06:16:16;11.90;99.90
75210;DHT22;63796;53.136;14.882;2023-10-13T06:19:03;11.90;99.90
75210;DHT22;63796;53.136;14.882;2023-10-13T06:21:49;11.90;99.90
75210;DHT22;63796;53.136;14.882;2023-10-13T06:24:36;11.90;99.90
75210;DHT22;63796;53.136;14.882;2023-10-13T06:27:21;11.90;99.90
75210;DHT22;63796;53.136;14.882;2023-10-13T06:30:07;12.00;99.90
75210;DHT22;63796;53.136;14.882;2023-10-13T06:32:35;12.00;99.90
75210;DHT22;63796;53.136;14.882;2023-10-13T06:35:07;12.10;99.90
75210;DHT22;63796;53.136;14.882;2023-10-13T06:37:35;12.10;99.90
75210;DHT22;63796;53.136;14.882;2023-10-13T06:40:09;12.20;99.90
75210;DHT22;63796;53.136;14.882;2023-10-13T06:42:53;12.20;99.90
75210;DHT22;63796;53.136;14.882;2023-10-13T06:45:30;12.30;99.90
75210;DHT22;63796;53.136;14.882;2023-10-13T06:48:03;12.20;99.90
75210;DHT22;63796;53.136;14.882;2023-10-13T06:50:31;12.30;99.90
75210;DHT22;63796;53.136;14.882;2023-10-13T06:53:06;12.30;99.90
75210;DHT22;63796;53.136;14.882;2023-10-13T06:55:36;12.40;99.90
75210;DHT22;63796;53.136;14.882;2023-10-13T06:58:07;12.40;99.90
75210;DHT22;63796;53.136;14.882;2023-10-13T07:00:40;12.40;99.90
75210;DHT22;63796;53.136;14.882;2023-10-13T07:03:08;12.60;99.90
75210;DHT22;63796;53.136;14.882;2023-10-13T07:05:45;12.60;99.90
75210;DHT22;63796;53.136;14.882;2023-10-13T07:08:15;12.60;99.90
75210;DHT22;63796;53.136;14.882;2023-10-13T07:10:51;12.70;99.90
75210;DHT22;63796;53.136;14.882;2023-10-13T07:13:29;12.60;99.90
75210;DHT22;63796;53.136;14.882;2023-10-13T07:15:59;12.70;99.90
75210;DHT22;63796;53.136;14.882;2023-10-13T07:18:35;12.80;99.90
75210;DHT22;63796;53.136;14.882;2023-10-13T07:21:04;12.80;99.90
75210;DHT22;63796;53.136;14.882;2023-10-13T07:23:37;12.90;99.90
75210;DHT22;63796;53.136;14.882;2023-10-13T07:26:05;12.90;99.90
75210;DHT22;63796;53.136;14.882;2023-10-13T07:28:36;12.90;99.90
75210;DHT22;63796;53.136;14.882;2023-10-13T07:31:03;13.00;99.90
75210;DHT22;63796;53.136;14.882;2023-10-13T07:33:31;13.10;99.90
75210;DHT22;63796;53.136;14.882;2023-10-13T07:36:02;13.10;99.90
75210;DHT22;63796;53.136;14.882;2023-10-13T07:38:43;13.20;99.90
75210;DHT22;63796;53.136;14.882;2023-10-13T07:41:31;13.40;99.90
75210;DHT22;63796;53.136;14.882;2023-10-13T07:44:00;13.40;99.90
75210;DHT22;63796;53.136;14.882;2023-10-13T07:46:31;13.50;99.90
75210;DHT22;63796;53.136;14.882;2023-10-13T07:49:00;13.60;99.90
75210;DHT22;63796;53.136;14.882;2023-10-13T07:51:36;13.60;99.90
75210;DHT22;63796;53.136;14.882;2023-10-13T07:54:12;13.70;99.90
75210;DHT22;63796;53.136;14.882;2023-10-13T07:56:42;13.70;99.90
75210;DHT22;63796;53.136;14.882;2023-10-13T07:59:09;13.70;99.90
75210;DHT22;63796;53.136;14.882;2023-10-13T08:01:36;13.70;99.90
75210;DHT22;63796;53.136;14.882;2023-10-13T08:04:10;13.90;99.90
75210;DHT22;63796;53.136;14.882;2023-10-13T08:06:41;14.10;99.90
75210;DHT22;63796;53.136;14.882;2023-10-13T08:09:11;14.20;99.90
75210;DHT22;63796;53.136;14.882;2023-10-13T08:11:57;14.20;99.90
75210;DHT22;63796;53.136;14.882;2023-10-13T08:14:25;14.40;99.90
75210;DHT22;63796;53.136;14.882;2023-10-13T08:17:06;14.70;99.90
75210;DHT22;63796;53.136;14.882;2023-10-13T08:19:39;14.80;99.90
75210;DHT22;63796;53.136;14.882;2023-10-13T08:22:09;14.90;99.90
75210;DHT22;63796;53.136;14.882;2023-10-13T08:24:50;14.90;99.90
75210;DHT22;63796;53.136;14.882;2023-10-13T08:27:19;15.00;99.90
75210;DHT22;63796;53.136;14.882;2023-10-13T08:30:15;15.10;99.90
75210;DHT22;63796;53.136;14.882;2023-10-13T08:33:09;15.20;99.90
75210;DHT22;63796;53.136;14.882;2023-10-13T08:35:45;15.10;99.90
75210;DHT22;63796;53.136;14.882;2023-10-13T08:38:22;15.10;99.90
75210;DHT22;63796;53.136;14.882;2023-10-13T08:40:58;15.30;99.90
75210;DHT22;63796;53.136;14.882;2023-10-13T08:43:45;15.50;99.90
75210;DHT22;63796;53.136;14.882;2023-10-13T08:46:20;15.40;99.90
75210;DHT22;63796;53.136;14.882;2023-10-13T08:48:57;15.50;99.90
75210;DHT22;63796;53.136;14.882;2023-10-13T08:51:43;15.60;99.90
75210;DHT22;63796;53.136;14.882;2023-10-13T08:54:14;15.80;99.90
75210;DHT22;63796;53.136;14.882;2023-10-13T08:56:47;15.80;99.90
75210;DHT22;63796;53.136;14.882;2023-10-13T08:59:24;15.80;99.90
75210;DHT22;63796;53.136;14.882;2023-10-13T09:02:14;15.80;99.90
75210;DHT22;63796;53.136;14.882;2023-10-13T09:04:46;15.90;99.90
75210;DHT22;63796;53.136;14.882;2023-10-13T09:07:15;16.20;99.90
75210;DHT22;63796;53.136;14.882;2023-10-13T09:12:13;16.50;99.90
75210;DHT22;63796;53.136;14.882;2023-10-13T09:14:43;16.50;99.90
75210;DHT22;63796;53.136;14.882;2023-10-13T09:17:12;16.50;99.90
75210;DHT22;63796;53.136;14.882;2023-10-13T09:20:00;16.60;99.90
75210;DHT22;63796;53.136;14.882;2023-10-13T09:22:48;16.70;99.90
75210;DHT22;63796;53.136;14.882;2023-10-13T09:25:43;16.70;99.90
75210;DHT22;63796;53.136;14.882;2023-10-13T09:28:28;16.80;99.90
75210;DHT22;63796;53.136;14.882;2023-10-13T09:30:55;16.60;99.90
75210;DHT22;63796;53.136;14.882;2023-10-13T09:33:27;16.70;99.90
75210;DHT22;63796;53.136;14.882;2023-10-13T09:36:07;16.80;99.90
75210;DHT22;63796;53.136;14.882;2023-10-13T09:38:35;16.90;99.90
75210;DHT22;63796;53.136;14.882;2023-10-13T09:41:04;16.90;99.90
75210;DHT22;63796;53.136;14.882;2023-10-13T09:43:52;17.10;99.90
75210;DHT22;63796;53.136;14.882;2023-10-13T09:46:25;16.90;99.90
75210;DHT22;63796;53.136;14.882;2023-10-13T09:48:59;16.90;99.90
75210;DHT22;63796;53.136;14.882;2023-10-13T09:51:41;16.80;99.90
75210;DHT22;63796;53.136;14.882;2023-10-13T09:57:17;16.80;99.90
75210;DHT22;63796;53.136;14.882;2023-10-13T09:59:52;16.80;99.90
75210;DHT22;63796;53.136;14.882;2023-10-13T10:02:54;16.80;99.90
75210;DHT22;63796;53.136;14.882;2023-10-13T10:05:26;16.80;99.90
75210;DHT22;63796;53.136;14.882;2023-10-13T10:07:54;16.80;99.90
75210;DHT22;63796;53.136;14.882;2023-10-13T10:10:27;16.80;99.90
75210;DHT22;63796;53.136;14.882;2023-10-13T10:13:15;16.70;99.90
75210;DHT22;63796;53.136;14.882;2023-10-13T10:16:06;16.70;99.90
75210;DHT22;63796;53.136;14.882;2023-10-13T10:18:41;16.60;99.90
75210;DHT22;63796;53.136;14.882;2023-10-13T10:21:10;16.60;99.90
75210;DHT22;63796;53.136;14.882;2023-10-13T10:23:38;16.70;99.90
75210;DHT22;63796;53.136;14.882;2023-10-13T10:26:14;16.80;99.90
75210;DHT22;63796;53.136;14.882;2023-10-13T10:28:47;16.90;99.90
75210;DHT22;63796;53.136;14.882;2023-10-13T10:31:15;17.00;99.90
75210;DHT22;63796;53.136;14.882;2023-10-13T10:33:44;17.10;99.90
75210;DHT22;63796;53.136;14.882;2023-10-13T10:36:22;17.20;99.90
75210;DHT22;63796;53.136;14.882;2023-10-13T10:38:57;17.20;99.90
75210;DHT22;63796;53.136;14.882;2023-10-13T10:41:29;17.20;99.90
75210;DHT22;63796;53.136;14.882;2023-10-13T10:44:12;17.20;99.90
75210;DHT22;63796;53.136;14.882;2023-10-13T10:46:43;17.20;99.90
75210;DHT22;63796;53.136;14.882;2023-10-13T10:49:28;17.20;99.90
75210;DHT22;63796;53.136;14.882;2023-10-13T10:51:58;17.30;99.90
75210;DHT22;63796;53.136;14.882;2023-10-13T10:54:31;17.40;99.90
75210;DHT22;63796;53.136;14.882;2023-10-13T10:56:59;17.40;99.90
75210;DHT22;63796;53.136;14.882;2023-10-13T10:59:40;17.50;99.90
75210;DHT22;63796;53.136;14.882;2023-10-13T11:02:07;17.60;99.90
75210;DHT22;63796;53.136;14.882;2023-10-13T11:04:35;17.60;99.90
75210;DHT22;63796;53.136;14.882;2023-10-13T11:07:24;17.60;99.90
75210;DHT22;63796;53.136;14.882;2023-10-13T11:09:54;17.80;99.90
75210;DHT22;63796;53.136;14.882;2023-10-13T11:12:33;18.00;99.90
75210;DHT22;63796;53.136;14.882;2023-10-13T11:15:07;17.90;99.90
75210;DHT22;63796;53.136;14.882;2023-10-13T11:17:49;17.90;99.90
75210;DHT22;63796;53.136;14.882;2023-10-13T11:20:24;17.80;99.90
75210;DHT22;63796;53.136;14.882;2023-10-13T11:23:00;17.80;99.90
75210;DHT22;63796;53.136;14.882;2023-10-13T11:25:32;17.90;99.90
75210;DHT22;63796;53.136;14.882;2023-10-13T11:28:12;18.00;99.90
75210;DHT22;63796;53.136;14.882;2023-10-13T11:30:55;18.00;99.90
75210;DHT22;63796;53.136;14.882;2023-10-13T11:33:27;17.90;99.90
75210;DHT22;63796;53.136;14.882;2023-10-13T11:35:56;17.80;99.90
75210;DHT22;63796;53.136;14.882;2023-10-13T11:38:25;17.80;99.90
75210;DHT22;63796;53.136;14.882;2023-10-13T11:43:32;17.30;99.90
75210;DHT22;63796;53.136;14.882;2023-10-13T11:46:10;17.10;99.90
75210;DHT22;63796;53.136;14.882;2023-10-13T11:48:42;17.20;99.90
75210;DHT22;63796;53.136;14.882;2023-10-13T11:51:14;17.00;99.90
75210;DHT22;63796;53.136;14.882;2023-10-13T11:53:44;16.80;99.90
75210;DHT22;63796;53.136;14.882;2023-10-13T11:56:12;16.70;99.90
75210;DHT22;63796;53.136;14.882;2023-10-13T11:58:40;16.60;99.90
75210;DHT22;63796;53.136;14.882;2023-10-13T12:01:07;16.60;99.90
75210;DHT22;63796;53.136;14.882;2023-10-13T12:03:41;16.70;99.90
75210;DHT22;63796;53.136;14.882;2023-10-13T12:06:28;16.70;99.90
75210;DHT22;63796;53.136;14.882;2023-10-13T12:09:02;16.70;99.90
75210;DHT22;63796;53.136;14.882;2023-10-13T12:11:45;16.70;99.90
75210;DHT22;63796;53.136;14.882;2023-10-13T12:14:27;16.70;99.90
75210;DHT22;63796;53.136;14.882;2023-10-13T12:16:56;16.60;99.90
75210;DHT22;63796;53.136;14.882;2023-10-13T12:19:31;16.60;99.90
75210;DHT22;63796;53.136;14.882;2023-10-13T12:21:58;16.60;99.90
75210;DHT22;63796;53.136;14.882;2023-10-13T12:24:32;16.70;99.90
75210;DHT22;63796;53.136;14.882;2023-10-13T12:27:03;16.50;99.90
75210;DHT22;63796;53.136;14.882;2023-10-13T12:29:49;16.60;99.90
75210;DHT22;63796;53.136;14.882;2023-10-13T12:32:19;16.60;99.90
75210;DHT22;63796;53.136;14.882;2023-10-13T12:34:51;16.70;99.90
75210;DHT22;63796;53.136;14.882;2023-10-13T12:37:31;16.70;99.90
75210;DHT22;63796;53.136;14.882;2023-10-13T12:40:15;16.70;99.90
75210;DHT22;63796;53.136;14.882;2023-10-13T12:43:04;16.70;99.90
75210;DHT22;63796;53.136;14.882;2023-10-13T12:45:50;16.80;99.90
75210;DHT22;63796;53.136;14.882;2023-10-13T12:48:37;16.80;99.90
75210;DHT22;63796;53.136;14.882;2023-10-13T12:51:26;16.80;99.90
75210;DHT22;63796;53.136;14.882;2023-10-13T12:54:00;16.80;99.90
75210;DHT22;63796;53.136;14.882;2023-10-13T12:57:03;16.80;99.90
75210;DHT22;63796;53.136;14.882;2023-10-13T12:59:36;17.00;99.90
75210;DHT22;63796;53.136;14.882;2023-10-13T13:02:05;17.00;99.90
75210;DHT22;63796;53.136;14.882;2023-10-13T13:04:34;17.10;99.90
75210;DHT22;63796;53.136;14.882;2023-10-13T13:07:04;17.20;99.90
75210;DHT22;63796;53.136;14.882;2023-10-13T13:09:32;17.30;99.90
75210;DHT22;63796;53.136;14.882;2023-10-13T13:12:02;17.30;99.90
75210;DHT22;63796;53.136;14.882;2023-10-13T13:14:33;17.30;99.90
75210;DHT22;63796;53.136;14.882;2023-10-13T13:17:07;17.40;99.90
75210;DHT22;63796;53.136;14.882;2023-10-13T13:19:35;17.40;99.90
75210;DHT22;63796;53.136;14.882;2023-10-13T13:22:06;17.50;99.90
75210;DHT22;63796;53.136;14.882;2023-10-13T13:24:41;17.50;99.90
75210;DHT22;63796;53.136;14.882;2023-10-13T13:27:16;17.50;99.90
75210;DHT22;63796;53.136;14.882;2023-10-13T13:29:49;17.40;99.90
75210;DHT22;63796;53.136;14.882;2023-10-13T13:32:16;17.50;99.90
75210;DHT22;63796;53.136;14.882;2023-10-13T13:34:52;17.40;99.90
75210;DHT22;63796;53.136;14.882;2023-10-13T13:37:32;17.40;99.90
75210;DHT22;63796;53.136;14.882;2023-10-13T13:40:00;17.40;99.90
75210;DHT22;63796;53.136;14.882;2023-10-13T13:42:43;17.50;99.90
75210;DHT22;63796;53.136;14.882;2023-10-13T13:45:18;17.50;99.90
75210;DHT22;63796;53.136;14.882;2023-10-13T13:47:54;17.40;99.90
75210;DHT22;63796;53.136;14.882;2023-10-13T13:50:23;17.40;99.90
75210;DHT22;63796;53.136;14.882;2023-10-13T13:52:56;17.40;99.90
75210;DHT22;63796;53.136;14.882;2023-10-13T13:55:25;17.40;99.90
75210;DHT22;63796;53.136;14.882;2023-10-13T13:57:56;17.50;99.90
75210;DHT22;63796;53.136;14.882;2023-10-13T14:00:24;17.50;99.90
75210;DHT22;63796;53.136;14.882;2023-10-13T14:03:05;17.60;99.90
75210;DHT22;63796;53.136;14.882;2023-10-13T14:05:54;17.80;99.90
75210;DHT22;63796;53.136;14.882;2023-10-13T14:08:21;17.90;99.90
75210;DHT22;63796;53.136;14.882;2023-10-13T14:10:49;17.90;99.90
75210;DHT22;63796;53.136;14.882;2023-10-13T14:13:34;17.90;99.90
75210;DHT22;63796;53.136;14.882;2023-10-13T14:16:18;18.00;99.90
75210;DHT22;63796;53.136;14.882;2023-10-13T14:18:50;18.00;99.90
75210;DHT22;63796;53.136;14.882;2023-10-13T14:21:18;18.10;99.90
75210;DHT22;63796;53.136;14.882;2023-10-13T14:23:46;18.20;99.90
75210;DHT22;63796;53.136;14.882;2023-10-13T14:26:15;18.20;99.90
75210;DHT22;63796;53.136;14.882;2023-10-13T14:28:52;18.40;99.90
75210;DHT22;63796;53.136;14.882;2023-10-13T14:31:35;18.40;99.90
75210;DHT22;63796;53.136;14.882;2023-10-13T14:34:09;18.50;99.90
75210;DHT22;63796;53.136;14.882;2023-10-13T14:36:38;18.50;99.90
75210;DHT22;63796;53.136;14.882;2023-10-13T14:39:05;18.50;99.90
75210;DHT22;63796;53.136;14.882;2023-10-13T14:41:36;18.60;99.90
75210;DHT22;63796;53.136;14.882;2023-10-13T14:44:07;18.70;99.90
75210;DHT22;63796;53.136;14.882;2023-10-13T14:46:34;18.80;99.90
75210;DHT22;63796;53.136;14.882;2023-10-13T14:49:03;18.80;99.90
75210;DHT22;63796;53.136;14.882;2023-10-13T14:51:30;18.80;99.90
75210;DHT22;63796;53.136;14.882;2023-10-13T14:53:59;18.90;99.90
75210;DHT22;63796;53.136;14.882;2023-10-13T14:56:27;18.90;99.90
75210;DHT22;63796;53.136;14.882;2023-10-13T14:58:56;18.80;99.90
75210;DHT22;63796;53.136;14.882;2023-10-13T15:01:23;18.80;99.90
75210;DHT22;63796;53.136;14.882;2023-10-13T15:03:54;18.90;99.90
75210;DHT22;63796;53.136;14.882;2023-10-13T15:06:25;18.90;99.90
75210;DHT22;63796;53.136;14.882;2023-10-13T15:08:58;18.90;99.90
75210;DHT22;63796;53.136;14.882;2023-10-13T15:11:27;18.80;99.90
75210;DHT22;63796;53.136;14.882;2023-10-13T15:14:14;18.80;99.90
75210;DHT22;63796;53.136;14.882;2023-10-13T15:16:42;18.80;99.90
75210;DHT22;63796;53.136;14.882;2023-10-13T15:19:11;18.80;99.90
75210;DHT22;63796;53.136;14.882;2023-10-13T15:21:39;18.80;99.90
75210;DHT22;63796;53.136;14.882;2023-10-13T15:24:16;18.80;99.90
75210;DHT22;63796;53.136;14.882;2023-10-13T15:26:47;19.00;99.90
75210;DHT22;63796;53.136;14.882;2023-10-13T15:31:43;19.00;99.90
75210;DHT22;63796;53.136;14.882;2023-10-13T15:34:32;19.10;99.90
75210;DHT22;63796;53.136;14.882;2023-10-13T15:36:59;19.00;99.90
75210;DHT22;63796;53.136;14.882;2023-10-13T15:39:32;19.10;99.90
75210;DHT22;63796;53.136;14.882;2023-10-13T15:41:59;19.10;99.90
75210;DHT22;63796;53.136;14.882;2023-10-13T15:44:29;19.00;99.90
75210;DHT22;63796;53.136;14.882;2023-10-13T15:46:58;19.00;99.90
75210;DHT22;63796;53.136;14.882;2023-10-13T15:49:31;19.00;99.90
75210;DHT22;63796;53.136;14.882;2023-10-13T15:52:01;19.20;99.90
75210;DHT22;63796;53.136;14.882;2023-10-13T15:54:31;19.10;99.90
75210;DHT22;63796;53.136;14.882;2023-10-13T15:56:58;19.10;99.90
75210;DHT22;63796;53.136;14.882;2023-10-13T15:59:25;19.00;99.90
75210;DHT22;63796;53.136;14.882;2023-10-13T16:01:53;19.00;99.90
75210;DHT22;63796;53.136;14.882;2023-10-13T16:04:27;19.00;99.90
75210;DHT22;63796;53.136;14.882;2023-10-13T16:06:54;19.10;99.90
75210;DHT22;63796;53.136;14.882;2023-10-13T16:09:21;19.20;99.90
75210;DHT22;63796;53.136;14.882;2023-10-13T16:11:52;19.00;99.90
75210;DHT22;63796;53.136;14.882;2023-10-13T16:14:20;19.10;99.90
75210;DHT22;63796;53.136;14.882;2023-10-13T16:16:49;19.10;99.90
75210;DHT22;63796;53.136;14.882;2023-10-13T16:19:20;19.10;99.90
75210;DHT22;63796;53.136;14.882;2023-10-13T16:21:51;19.00;99.90
75210;DHT22;63796;53.136;14.882;2023-10-13T16:24:20;19.20;99.90
75210;DHT22;63796;53.136;14.882;2023-10-13T16:26:50;19.20;99.90